EGSH

Norwich International Airport

Norwich, United Kingdom
METAR EGSH 240750Z 04008KT 360V070 9000 NSC 15/12 Q1022 NOSIG
Observed Flight Rules
May-24 @ 07:50 UTC (12 minutes ago) Visual Flight Rules
Wind Visibility Clouds
40° at 8 knots 8,996 meters
  • Clear skies
Temperatures Readings
Current 15°C / 59°F
Dewpoint 12°C / 54°F
Humidity 82%
Altimeter 30.18" Hg
Pressure 1022 hPa
Elevation 36
METAR EGSH 240750Z 04008KT 360V070 9000 NSC 15/12 Q1022 NOSIG
Observed Flight Rules
May-24 @ 07:50 UTC
(12 minutes ago)
VFR
Wind Visibility
40° at 8 knots 8,996 meters
Clouds
  • Clear skies
Temperature Dewpoint
15°C / 59°F 12°C / 54°F
Humidity Altimeter Pressure
82% 30.18" Hg 1022 hPa